Station Historical Data
Daily Summary for April 27, 2017 Units:  English    Metric   Both
Next Day »
Daily Weekly Monthly Yearly Custom
  High: Low: Average:
Temperature: 60.4 °F 46.0 °F 52.9 °F
Dew Point: 51.8 °F 33.0 °F 43.9 °F
Humidity: 91% 37% 74%
Wind Speed: 13.0mph 0.0mph 1.9mph
Wind Gust: 18.0mph - -
Wind- - WSW
Pressure: 30.06 in 29.99 in -
Precipitation: 0.00 in    
Historical Graphs
 
 
Tabular Data for April 27, 2017
Time Temperature Dew Point Pressure Wind Wind Speed Wind Gust Humidity Rainfall Rate (Hourly) solar Conditions
00:00 51.6 °F 48.8 °F 30.03 in Calm   8.0 mph 90% 0.00 in 0.00 W/m2
00:05 51.6 °F 48.8 °F 30.04 in South 5.0 mph 10.0 mph 90% 0.00 in 0.00 W/m2
00:10 51.5 °F 48.7 °F 30.03 in South 6.0 mph 8.0 mph 90% 0.00 in 0.00 W/m2
00:15 51.6 °F 48.8 °F 30.03 in Calm   6.0 mph 90% 0.00 in 0.00 W/m2
00:20 51.5 °F 48.7 °F 30.03 in Calm     90% 0.00 in 0.00 W/m2
00:25 51.5 °F 48.7 °F 30.04 in Calm     90% 0.00 in 0.00 W/m2
00:30 51.5 °F 48.7 °F 30.04 in Calm     90% 0.00 in 0.00 W/m2
00:35 51.5 °F 48.7 °F 30.04 in Calm     90% 0.00 in 0.00 W/m2
00:40 51.5 °F 48.7 °F 30.04 in Calm     90% 0.00 in 0.00 W/m2
00:45 51.5 °F 48.7 °F 30.04 in Calm     90% 0.00 in 0.00 W/m2
00:50 51.4 °F 48.6 °F 30.04 in Calm     90% 0.00 in 0.00 W/m2
00:51 51.4 °F 48.6 °F 30.04 in Calm     90% 0.00 in 0.00 W/m2
00:56 51.4 °F 48.6 °F 30.03 in Calm     90% 0.00 in 0.00 W/m2
01:01 51.4 °F 48.6 °F 30.03 in South 8.0 mph 8.0 mph 90% 0.00 in 0.00 W/m2
01:06 51.4 °F 48.6 °F 30.03 in South 8.0 mph 9.0 mph 90% 0.00 in 0.00 W/m2
01:11 51.3 °F 48.5 °F 30.02 in South 6.0 mph 6.0 mph 90% 0.00 in 0.00 W/m2
01:16 51.3 °F 48.5 °F 30.02 in Calm     90% 0.00 in 0.00 W/m2
01:21 51.2 °F 48.4 °F 30.02 in Calm     90% 0.00 in 0.00 W/m2
01:26 51.2 °F 48.4 °F 30.02 in SSE 5.0 mph 11.0 mph 90% 0.00 in 0.00 W/m2
01:31 51.2 °F 48.4 °F 30.02 in SSE 7.0 mph 9.0 mph 90% 0.00 in 0.00 W/m2
01:36 51.0 °F 48.2 °F 30.01 in SSE 6.0 mph 10.0 mph 90% 0.00 in 0.00 W/m2
01:41 51.0 °F 48.2 °F 30.01 in SSE 10.0 mph 10.0 mph 90% 0.00 in 0.00 W/m2
01:46 51.0 °F 48.2 °F 30.01 in SSE 5.0 mph 8.0 mph 90% 0.00 in 0.00 W/m2
01:51 50.9 °F 48.1 °F 30.02 in SSE 5.0 mph 8.0 mph 90% 0.00 in 0.00 W/m2
01:56 50.9 °F 48.1 °F 30.02 in Calm     90% 0.00 in 0.00 W/m2
02:01 50.8 °F 48.0 °F 30.03 in Calm     90% 0.00 in 0.00 W/m2
02:06 50.8 °F 48.0 °F 30.03 in Calm     90% 0.00 in 0.00 W/m2
02:11 50.8 °F 48.0 °F 30.03 in Calm     90% 0.00 in 0.00 W/m2
02:16 50.7 °F 47.9 °F 30.02 in Calm     90% 0.00 in 0.00 W/m2
02:21 50.7 °F 47.9 °F 30.02 in Calm     90% 0.00 in 0.00 W/m2
02:26 50.7 °F 47.9 °F 30.02 in Calm     90% 0.00 in 0.00 W/m2
02:31 50.6 °F 47.8 °F 30.02 in Calm     90% 0.00 in 0.00 W/m2
02:36 50.6 °F 47.8 °F 30.02 in Calm     90% 0.00 in 0.00 W/m2
02:41 50.6 °F 47.8 °F 30.02 in Calm     90% 0.00 in 0.00 W/m2
02:46 50.6 °F 47.8 °F 30.01 in Calm     90% 0.00 in 0.00 W/m2
02:56 50.6 °F 47.8 °F 30.01 in Calm     90% 0.00 in 0.00 W/m2
03:01 50.5 °F 47.7 °F 30.01 in Calm     90% 0.00 in 0.00 W/m2
03:06 50.5 °F 47.7 °F 30.01 in Calm     90% 0.00 in 0.00 W/m2
03:11 50.5 °F 47.7 °F 30.01 in Calm     90% 0.00 in 0.00 W/m2
03:16 50.5 °F 47.7 °F 30.01 in Calm     90% 0.00 in 0.00 W/m2
03:21 50.5 °F 47.7 °F 30.01 in Calm     90% 0.00 in 0.00 W/m2
03:26 50.5 °F 47.7 °F 30.02 in Calm     90% 0.00 in 0.00 W/m2
03:31 50.5 °F 47.7 °F 30.02 in Calm     90% 0.00 in 0.00 W/m2
03:36 50.5 °F 47.7 °F 30.02 in Calm     90% 0.00 in 0.00 W/m2
03:41 50.4 °F 47.6 °F 30.02 in Calm     90% 0.00 in 0.00 W/m2
03:46 50.4 °F 47.6 °F 30.01 in Calm     90% 0.00 in 0.00 W/m2
03:51 50.4 °F 47.6 °F 30.02 in Calm     90% 0.00 in 0.00 W/m2
03:56 50.4 °F 47.6 °F 30.02 in Calm     90% 0.00 in 0.00 W/m2
04:01 50.3 °F 47.5 °F 30.02 in Calm     90% 0.00 in 0.00 W/m2
04:06 50.3 °F 47.5 °F 30.02 in Calm     90% 0.00 in 0.00 W/m2
04:11 50.3 °F 47.5 °F 30.02 in Calm     90% 0.00 in 0.00 W/m2
04:16 50.3 °F 47.5 °F 30.02 in Calm     90% 0.00 in 0.00 W/m2
04:21 50.3 °F 47.5 °F 30.02 in Calm     90% 0.00 in 0.00 W/m2
04:27 50.3 °F 47.5 °F 30.02 in Calm     90% 0.00 in 0.00 W/m2
04:32 50.3 °F 47.5 °F 30.02 in Calm     90% 0.00 in 0.00 W/m2
04:37 50.3 °F 47.5 °F 30.02 in Calm     90% 0.00 in 0.00 W/m2
04:42 50.2 °F 47.4 °F 30.02 in Calm     90% 0.00 in 0.00 W/m2
04:47 50.1 °F 47.3 °F 30.02 in Calm     90% 0.00 in 0.00 W/m2
04:52 50.0 °F 47.2 °F 30.02 in Calm     90% 0.00 in 0.00 W/m2
04:57 49.8 °F 47.0 °F 30.02 in Calm     90% 0.00 in 0.00 W/m2
05:02 49.5 °F 46.7 °F 30.02 in Calm     90% 0.00 in 0.00 W/m2
05:07 49.4 °F 46.6 °F 30.02 in Calm     90% 0.00 in 0.00 W/m2
05:12 49.2 °F 46.4 °F 30.03 in Calm     90% 0.00 in 0.00 W/m2
05:17 49.0 °F 46.2 °F 30.02 in Calm     90% 0.00 in 0.00 W/m2
05:22 48.9 °F 46.1 °F 30.02 in Calm     90% 0.00 in 0.00 W/m2
05:27 48.9 °F 46.1 °F 30.02 in Calm     90% 0.00 in 0.00 W/m2
05:32 48.9 °F 46.1 °F 30.02 in Calm     90% 0.00 in 0.00 W/m2
05:37 49.0 °F 46.2 °F 30.02 in Calm     90% 0.00 in 0.00 W/m2
05:42 49.0 °F 46.2 °F 30.02 in Calm     90% 0.00 in 0.00 W/m2
05:47 49.0 °F 46.2 °F 30.02 in Calm     90% 0.00 in 0.00 W/m2
05:52 49.1 °F 46.6 °F 30.01 in Calm     91% 0.00 in 0.00 W/m2
05:57 49.2 °F 46.7 °F 30.01 in Calm     91% 0.00 in 0.00 W/m2
06:02 49.2 °F 46.7 °F 30.01 in Calm     91% 0.00 in 0.00 W/m2
06:07 49.2 °F 46.7 °F 30.02 in Calm     91% 0.00 in 0.00 W/m2
06:12 49.2 °F 46.7 °F 30.02 in Calm     91% 0.00 in 0.00 W/m2
06:17 49.1 °F 46.3 °F 30.02 in Calm     90% 0.00 in 5.00 W/m2
06:22 49.0 °F 46.2 °F 30.03 in Calm     90% 0.00 in 0.00 W/m2
06:27 48.9 °F 46.1 °F 30.03 in Calm     90% 0.00 in 5.00 W/m2
06:32 48.9 °F 46.1 °F 30.03 in Calm     90% 0.00 in 7.00 W/m2
06:37 49.0 °F 46.2 °F 30.04 in Calm     90% 0.00 in 18.00 W/m2
06:42 49.1 °F 46.6 °F 30.03 in Calm     91% 0.00 in 25.00 W/m2
06:47 49.1 °F 46.6 °F 30.03 in Calm     91% 0.00 in 30.00 W/m2
06:52 49.3 °F 46.8 °F 30.03 in Calm     91% 0.00 in 40.00 W/m2
06:57 49.4 °F 46.9 °F 30.03 in Calm     91% 0.00 in 35.00 W/m2
07:02 49.4 °F 46.9 °F 30.03 in Calm     91% 0.00 in 30.00 W/m2
07:07 49.5 °F 47.0 °F 30.03 in Calm     91% 0.00 in 47.00 W/m2
07:12 49.5 °F 47.0 °F 30.03 in Calm     91% 0.00 in 53.00 W/m2
07:17 49.6 °F 47.1 °F 30.03 in Calm     91% 0.00 in 160.00 W/m2
07:22 49.6 °F 47.1 °F 30.03 in Calm     91% 0.00 in 204.00 W/m2
07:27 49.6 °F 47.1 °F 30.03 in Calm     91% 0.00 in 127.00 W/m2
07:32 49.7 °F 47.2 °F 30.03 in Calm     91% 0.00 in 179.00 W/m2
07:38 49.7 °F 47.2 °F 30.03 in Calm     91% 0.00 in 123.00 W/m2
07:43 49.7 °F 47.2 °F 30.03 in Calm     91% 0.00 in 142.00 W/m2
07:48 49.8 °F 47.3 °F 30.04 in Calm     91% 0.00 in 174.00 W/m2
07:53 49.9 °F 47.4 °F 30.04 in Calm     91% 0.00 in 188.00 W/m2
07:58 49.9 °F 47.4 °F 30.05 in Calm     91% 0.00 in 202.00 W/m2
08:03 50.0 °F 47.5 °F 30.05 in Calm     91% 0.00 in 297.00 W/m2
08:08 50.1 °F 47.6 °F 30.05 in Calm   5.0 mph 91% 0.00 in 336.00 W/m2
08:13 50.2 °F 47.7 °F 30.05 in Calm     91% 0.00 in 334.00 W/m2
08:18 50.3 °F 47.8 °F 30.05 in Calm     91% 0.00 in 396.00 W/m2
08:23 50.4 °F 47.9 °F 30.05 in Calm   1.0 mph 91% 0.00 in 311.00 W/m2
08:28 50.5 °F 48.0 °F 30.05 in Calm     91% 0.00 in 364.00 W/m2
08:33 50.7 °F 48.2 °F 30.05 in Calm     91% 0.00 in 225.00 W/m2
08:38 50.8 °F 48.3 °F 30.04 in Calm     91% 0.00 in 283.00 W/m2
08:43 51.0 °F 48.5 °F 30.05 in Calm     91% 0.00 in 325.00 W/m2
08:48 51.1 °F 48.6 °F 30.04 in Calm     91% 0.00 in 338.00 W/m2
08:53 51.2 °F 48.7 °F 30.05 in Calm     91% 0.00 in 250.00 W/m2
08:58 51.2 °F 48.7 °F 30.05 in SSE 1.0 mph 6.0 mph 91% 0.00 in 192.00 W/m2
09:03 51.2 °F 48.7 °F 30.05 in SSE 2.0 mph 5.0 mph 91% 0.00 in 548.00 W/m2
09:08 51.3 °F 48.8 °F 30.05 in Calm   5.0 mph 91% 0.00 in 439.00 W/m2
09:14 51.4 °F 48.9 °F 30.06 in SSE 4.0 mph 9.0 mph 91% 0.00 in 619.00 W/m2
09:19 51.5 °F 49.0 °F 30.06 in ENE 6.0 mph 9.0 mph 91% 0.00 in 580.00 W/m2
09:24 51.5 °F 49.0 °F 30.06 in NNE 4.0 mph 6.0 mph 91% 0.00 in 626.00 W/m2
09:29 51.7 °F 49.2 °F 30.06 in NNE 2.0 mph 6.0 mph 91% 0.00 in 608.00 W/m2
09:34 51.7 °F 49.2 °F 30.06 in NNE 4.0 mph 5.0 mph 91% 0.00 in 617.00 W/m2
09:39 51.6 °F 49.1 °F 30.05 in North 6.0 mph 9.0 mph 91% 0.00 in 645.00 W/m2
09:40 51.6 °F 49.1 °F 30.05 in North 4.0 mph 9.0 mph 91% 0.00 in 547.00 W/m2
09:45 51.5 °F 49.0 °F 30.05 in North 2.0 mph 7.0 mph 91% 0.00 in 594.00 W/m2
09:50 51.1 °F 48.6 °F 30.05 in North 7.0 mph 8.0 mph 91% 0.00 in 677.00 W/m2
09:55 50.9 °F 48.4 °F 30.04 in NNW 4.0 mph 8.0 mph 91% 0.00 in 708.00 W/m2
10:00 50.9 °F 48.4 °F 30.03 in North 7.0 mph 8.0 mph 91% 0.00 in 722.00 W/m2
10:05 50.7 °F 48.2 °F 30.04 in North 1.0 mph 4.0 mph 91% 0.00 in 612.00 W/m2
10:10 50.1 °F 47.3 °F 30.04 in NNW 9.0 mph 11.0 mph 90% 0.00 in 701.00 W/m2
10:15 50.1 °F 47.3 °F 30.04 in NNW 1.0 mph 6.0 mph 90% 0.00 in 756.00 W/m2
10:20 50.3 °F 47.5 °F 30.04 in NNW 4.0 mph 7.0 mph 90% 0.00 in 754.00 W/m2
10:25 50.5 °F 47.7 °F 30.04 in NW 4.0 mph 6.0 mph 90% 0.00 in 782.00 W/m2
10:30 51.1 °F 48.3 °F 30.05 in WNW 3.0 mph 6.0 mph 90% 0.00 in 803.00 W/m2
10:35 51.7 °F 48.9 °F 30.05 in WNW 3.0 mph 6.0 mph 90% 0.00 in 784.00 W/m2
10:40 52.0 °F 49.2 °F 30.05 in Calm   4.0 mph 90% 0.00 in 807.00 W/m2
10:45 52.3 °F 49.5 °F 30.05 in WNW 1.0 mph 9.0 mph 90% 0.00 in 810.00 W/m2
10:50 52.5 °F 49.7 °F 30.05 in WNW 4.0 mph 5.0 mph 90% 0.00 in 909.00 W/m2
10:55 52.6 °F 50.0 °F 30.05 in WNW 2.0 mph 6.0 mph 91% 0.00 in 942.00 W/m2
11:00 52.6 °F 49.8 °F 30.04 in Calm   6.0 mph 90% 0.00 in 879.00 W/m2
11:05 52.8 °F 50.0 °F 30.04 in Calm   6.0 mph 90% 0.00 in 847.00 W/m2
11:10 53.3 °F 50.2 °F 30.05 in WNW 7.0 mph 7.0 mph 89% 0.00 in 863.00 W/m2
11:15 53.7 °F 50.2 °F 30.05 in WNW 7.0 mph 10.0 mph 88% 0.00 in 853.00 W/m2
11:20 54.2 °F 50.4 °F 30.05 in WNW 5.0 mph 8.0 mph 87% 0.00 in 870.00 W/m2
11:25 54.3 °F 49.9 °F 30.05 in NW 2.0 mph 8.0 mph 85% 0.00 in 872.00 W/m2
11:30 54.5 °F 49.5 °F 30.05 in Calm   5.0 mph 83% 0.00 in 830.00 W/m2
11:35 54.9 °F 49.8 °F 30.06 in WNW 4.0 mph 9.0 mph 83% 0.00 in 898.00 W/m2
11:40 55.2 °F 49.2 °F 30.06 in NW 3.0 mph 9.0 mph 80% 0.00 in 960.00 W/m2
11:45 55.5 °F 49.1 °F 30.05 in WSW 2.0 mph 8.0 mph 79% 0.00 in 911.00 W/m2
11:50 55.8 °F 50.1 °F 30.06 in WNW 3.0 mph 10.0 mph 81% 0.00 in 911.00 W/m2
11:55 56.0 °F 48.9 °F 30.06 in Calm   8.0 mph 77% 0.00 in 904.00 W/m2
12:00 56.3 °F 48.8 °F 30.05 in West 7.0 mph 9.0 mph 76% 0.00 in 912.00 W/m2
12:05 56.7 °F 48.5 °F 30.05 in NW 3.0 mph 8.0 mph 74% 0.00 in 942.00 W/m2
12:10 57.1 °F 47.8 °F 30.04 in Calm   11.0 mph 71% 0.00 in 942.00 W/m2
12:15 57.3 °F 49.1 °F 30.04 in Calm   4.0 mph 74% 0.00 in 958.00 W/m2
12:20 57.5 °F 48.9 °F 30.04 in West 2.0 mph 8.0 mph 73% 0.00 in 1127.00 W/m2
12:25 57.6 °F 50.1 °F 30.04 in Calm   5.0 mph 76% 0.00 in 879.00 W/m2
12:30 57.6 °F 49.8 °F 30.05 in Calm   13.0 mph 75% 0.00 in 1195.00 W/m2
12:35 57.6 °F 50.1 °F 30.04 in Calm   9.0 mph 76% 0.00 in 1014.00 W/m2
12:40 57.7 °F 50.9 °F 30.04 in Calm   6.0 mph 78% 0.00 in 436.00 W/m2
12:45 57.8 °F 51.0 °F 30.04 in West 7.0 mph 10.0 mph 78% 0.00 in 279.00 W/m2
12:50 58.0 °F 50.8 °F 30.04 in NW 1.0 mph 9.0 mph 77% 0.00 in 926.00 W/m2
12:55 58.1 °F 50.9 °F 30.04 in WNW 13.0 mph 13.0 mph 77% 0.00 in 371.00 W/m2
13:00 58.2 °F 51.4 °F 30.03 in Calm   12.0 mph 78% 0.00 in 325.00 W/m2
13:05 58.3 °F 51.1 °F 30.03 in NW 3.0 mph 11.0 mph 77% 0.00 in 946.00 W/m2
13:10 58.4 °F 50.5 °F 30.03 in NW 3.0 mph 12.0 mph 75% 0.00 in 1039.00 W/m2
13:15 58.6 °F 51.8 °F 30.03 in WNW 2.0 mph 11.0 mph 78% 0.00 in 1051.00 W/m2
13:20 58.8 °F 49.8 °F 30.03 in WNW 2.0 mph 9.0 mph 72% 0.00 in 1016.00 W/m2
13:25 59.0 °F 49.6 °F 30.03 in Calm   10.0 mph 71% 0.00 in 1085.00 W/m2
13:30 59.2 °F 50.2 °F 30.03 in West 8.0 mph 17.0 mph 72% 0.00 in 997.00 W/m2
13:35 59.6 °F 50.6 °F 30.03 in West 2.0 mph 13.0 mph 72% 0.00 in 1018.00 W/m2
13:40 59.7 °F 49.1 °F 30.03 in Calm   14.0 mph 68% 0.00 in 204.00 W/m2
13:45 59.7 °F 50.3 °F 30.03 in Calm   8.0 mph 71% 0.00 in 1044.00 W/m2
13:51 59.4 °F 48.0 °F 30.02 in West 10.0 mph 14.0 mph 66% 0.00 in 172.00 W/m2
13:56 59.3 °F 48.4 °F 30.02 in NW 8.0 mph 13.0 mph 67% 0.00 in 937.00 W/m2
14:01 59.5 °F 47.7 °F 30.02 in West 9.0 mph 13.0 mph 65% 0.00 in 912.00 W/m2
14:06 59.6 °F 45.3 °F 30.02 in Calm   17.0 mph 59% 0.00 in 900.00 W/m2
14:11 59.8 °F 44.5 °F 30.02 in West 2.0 mph 12.0 mph 57% 0.00 in 898.00 W/m2
14:16 60.0 °F 43.3 °F 30.02 in West 1.0 mph 12.0 mph 54% 0.00 in 912.00 W/m2
14:21 60.1 °F 44.4 °F 30.02 in West 5.0 mph 15.0 mph 56% 0.00 in 919.00 W/m2
14:26 60.4 °F 41.2 °F 30.02 in Calm   13.0 mph 49% 0.00 in 696.00 W/m2
14:31 60.3 °F 42.6 °F 30.02 in West 2.0 mph 13.0 mph 52% 0.00 in 895.00 W/m2
14:36 60.0 °F 40.3 °F 30.02 in West 9.0 mph 14.0 mph 48% 0.00 in 696.00 W/m2
14:41 59.8 °F 42.2 °F 30.02 in West 6.0 mph 16.0 mph 52% 0.00 in 879.00 W/m2
14:46 59.6 °F 39.9 °F 30.02 in WNW 6.0 mph 13.0 mph 48% 0.00 in 810.00 W/m2
14:51 59.5 °F 39.3 °F 30.02 in WNW 5.0 mph 12.0 mph 47% 0.00 in 819.00 W/m2
14:56 59.3 °F 39.1 °F 30.02 in North 12.0 mph 13.0 mph 47% 0.00 in 842.00 W/m2
15:01 59.1 °F 37.8 °F 30.02 in NNW 7.0 mph 16.0 mph 45% 0.00 in 823.00 W/m2
15:06 59.2 °F 38.5 °F 30.02 in WNW 5.0 mph 17.0 mph 46% 0.00 in 752.00 W/m2
15:11 59.3 °F 38.5 °F 30.01 in WNW 12.0 mph 15.0 mph 46% 0.00 in 824.00 W/m2
15:16 59.5 °F 40.3 °F 30.01 in WNW 8.0 mph 12.0 mph 49% 0.00 in 821.00 W/m2
15:21 59.4 °F 39.2 °F 30.01 in West 3.0 mph 14.0 mph 47% 0.00 in 735.00 W/m2
15:26 59.5 °F 39.3 °F 30.01 in Calm   15.0 mph 47% 0.00 in 722.00 W/m2
15:31 59.6 °F 38.8 °F 30.01 in WNW 2.0 mph 11.0 mph 46% 0.00 in 751.00 W/m2
15:36 59.6 °F 39.9 °F 30.01 in WSW 13.0 mph 13.0 mph 48% 0.00 in 749.00 W/m2
15:41 59.6 °F 39.4 °F 30.01 in WNW 4.0 mph 14.0 mph 47% 0.00 in 619.00 W/m2
15:46 59.5 °F 40.9 °F 30.00 in WNW 13.0 mph 15.0 mph 50% 0.00 in 679.00 W/m2
15:51 59.4 °F 38.6 °F 30.01 in West 12.0 mph 15.0 mph 46% 0.00 in 707.00 W/m2
15:56 59.5 °F 38.2 °F 30.01 in West 8.0 mph 15.0 mph 45% 0.00 in 698.00 W/m2
16:01 59.5 °F 38.7 °F 30.00 in WNW 9.0 mph 15.0 mph 46% 0.00 in 684.00 W/m2
16:06 59.5 °F 39.3 °F 30.00 in SW 6.0 mph 16.0 mph 47% 0.00 in 640.00 W/m2
16:11 59.5 °F 36.4 °F 30.00 in Calm   13.0 mph 42% 0.00 in 686.00 W/m2
16:16 59.5 °F 37.0 °F 30.00 in West 6.0 mph 18.0 mph 43% 0.00 in 636.00 W/m2
16:21 59.5 °F 37.0 °F 30.00 in West 4.0 mph 11.0 mph 43% 0.00 in 631.00 W/m2
16:26 59.5 °F 37.0 °F 30.00 in Calm   16.0 mph 43% 0.00 in 615.00 W/m2
16:31 59.4 °F 34.5 °F 30.01 in NW 8.0 mph 13.0 mph 39% 0.00 in 599.00 W/m2
16:36 59.3 °F 34.4 °F 30.00 in WNW 4.0 mph 11.0 mph 39% 0.00 in 584.00 W/m2
16:41 59.3 °F 36.2 °F 30.00 in NW 13.0 mph 15.0 mph 42% 0.00 in 564.00 W/m2
16:46 59.3 °F 36.2 °F 30.00 in NW 9.0 mph 16.0 mph 42% 0.00 in 552.00 W/m2
16:51 59.2 °F 33.0 °F 30.00 in Calm   17.0 mph 37% 0.00 in 538.00 W/m2
16:56 59.2 °F 35.5 °F 30.00 in NW 4.0 mph 12.0 mph 41% 0.00 in 520.00 W/m2
17:01 59.1 °F 36.7 °F 30.00 in WNW 1.0 mph 13.0 mph 43% 0.00 in 503.00 W/m2
17:06 59.1 °F 35.4 °F 30.00 in NW 1.0 mph 11.0 mph 41% 0.00 in 489.00 W/m2
17:11 59.1 °F 40.0 °F 30.00 in NNW 7.0 mph 7.0 mph 49% 0.00 in 476.00 W/m2
17:16 59.0 °F 33.5 °F 30.00 in Calm   16.0 mph 38% 0.00 in 457.00 W/m2
17:21 58.9 °F 34.6 °F 30.00 in NW 5.0 mph 17.0 mph 40% 0.00 in 438.00 W/m2
17:26 59.0 °F 37.7 °F 30.00 in NW 6.0 mph 17.0 mph 45% 0.00 in 420.00 W/m2
17:31 59.1 °F 34.8 °F 30.00 in NW 4.0 mph 12.0 mph 40% 0.00 in 404.00 W/m2
17:36 59.2 °F 37.3 °F 30.00 in West 5.0 mph 11.0 mph 44% 0.00 in 387.00 W/m2
17:41 59.2 °F 37.3 °F 29.99 in WSW 8.0 mph 11.0 mph 44% 0.00 in 376.00 W/m2
17:46 59.1 °F 34.8 °F 30.00 in WNW 4.0 mph 11.0 mph 40% 0.00 in 336.00 W/m2
17:51 59.0 °F 35.3 °F 29.99 in Calm   8.0 mph 41% 0.00 in 343.00 W/m2
17:56 59.0 °F 34.7 °F 30.00 in Calm   12.0 mph 40% 0.00 in 267.00 W/m2
18:01 58.9 °F 37.0 °F 30.00 in WNW 5.0 mph 8.0 mph 44% 0.00 in 272.00 W/m2
18:06 58.7 °F 35.1 °F 30.00 in Calm   15.0 mph 41% 0.00 in 271.00 W/m2
18:11 58.6 °F 34.4 °F 30.00 in Calm   14.0 mph 40% 0.00 in 160.00 W/m2
18:16 58.4 °F 34.8 °F 29.99 in Calm   8.0 mph 41% 0.00 in 223.00 W/m2
18:21 58.3 °F 34.7 °F 29.99 in Calm   9.0 mph 41% 0.00 in 244.00 W/m2
18:26 58.2 °F 34.0 °F 29.99 in West 4.0 mph 17.0 mph 40% 0.00 in 171.00 W/m2
18:31 58.1 °F 34.5 °F 29.99 in Calm   13.0 mph 41% 0.00 in 169.00 W/m2
18:36 57.9 °F 33.8 °F 29.99 in Calm   10.0 mph 40% 0.00 in 211.00 W/m2
18:41 57.8 °F 34.9 °F 29.99 in WNW 4.0 mph 4.0 mph 42% 0.00 in 174.00 W/m2
18:46 57.7 °F 36.5 °F 29.99 in NW 5.0 mph 5.0 mph 45% 0.00 in 100.00 W/m2
18:51 57.5 °F 35.2 °F 30.00 in WNW 6.0 mph 6.0 mph 43% 0.00 in 107.00 W/m2
18:56 57.3 °F 35.6 °F 29.99 in WNW 4.0 mph 4.0 mph 44% 0.00 in 104.00 W/m2
19:01 57.0 °F 36.4 °F 30.00 in Calm     46% 0.00 in 97.00 W/m2
19:06 56.7 °F 34.5 °F 30.00 in Calm   8.0 mph 43% 0.00 in 74.00 W/m2
19:11 56.6 °F 35.5 °F 30.00 in WNW 5.0 mph 8.0 mph 45% 0.00 in 60.00 W/m2
19:16 56.5 °F 36.5 °F 30.00 in Calm     47% 0.00 in 28.00 W/m2
19:21 56.4 °F 41.4 °F 29.99 in WNW 1.0 mph 1.0 mph 57% 0.00 in 30.00 W/m2
19:26 56.2 °F 41.6 °F 30.00 in Calm     58% 0.00 in 23.00 W/m2
19:31 55.6 °F 41.1 °F 29.99 in Calm     58% 0.00 in 19.00 W/m2
19:36 55.1 °F 40.6 °F 29.99 in Calm     58% 0.00 in 18.00 W/m2
19:41 54.7 °F 40.2 °F 29.99 in Calm     58% 0.00 in 14.00 W/m2
19:46 54.4 °F 40.4 °F 29.99 in Calm     59% 0.00 in 11.00 W/m2
19:51 54.0 °F 40.4 °F 30.00 in Calm     60% 0.00 in 7.00 W/m2
19:56 53.7 °F 39.3 °F 30.00 in Calm     58% 0.00 in 5.00 W/m2
20:01 53.4 °F 39.0 °F 30.00 in Calm     58% 0.00 in 0.00 W/m2
20:06 53.0 °F 38.6 °F 30.00 in Calm     58% 0.00 in 0.00 W/m2
20:11 52.6 °F 39.1 °F 30.00 in Calm     60% 0.00 in 0.00 W/m2
20:16 52.1 °F 39.1 °F 30.00 in Calm     61% 0.00 in 0.00 W/m2
20:21 51.7 °F 39.5 °F 30.00 in Calm     63% 0.00 in 0.00 W/m2
20:26 51.2 °F 39.0 °F 30.00 in Calm     63% 0.00 in 0.00 W/m2
20:31 50.7 °F 38.6 °F 30.00 in Calm     63% 0.00 in 0.00 W/m2
20:36 50.1 °F 38.0 °F 30.00 in Calm     63% 0.00 in 0.00 W/m2
20:41 49.7 °F 38.0 °F 30.01 in Calm     64% 0.00 in 0.00 W/m2
20:46 49.4 °F 37.8 °F 30.01 in Calm     64% 0.00 in 0.00 W/m2
20:51 49.2 °F 38.0 °F 30.01 in Calm     65% 0.00 in 0.00 W/m2
20:52 49.1 °F 37.9 °F 30.01 in Calm     65% 0.00 in 0.00 W/m2
20:57 49.0 °F 37.4 °F 30.01 in Calm     64% 0.00 in 0.00 W/m2
21:02 48.8 °F 37.6 °F 30.01 in Calm     65% 0.00 in 0.00 W/m2
21:07 48.6 °F 37.0 °F 30.01 in Calm     64% 0.00 in 0.00 W/m2
21:12 48.5 °F 37.3 °F 30.01 in Calm     65% 0.00 in 0.00 W/m2
21:17 48.4 °F 38.0 °F 30.01 in Calm     67% 0.00 in 0.00 W/m2
21:22 48.3 °F 37.5 °F 30.01 in Calm     66% 0.00 in 0.00 W/m2
21:27 48.3 °F 37.1 °F 30.01 in Calm     65% 0.00 in 0.00 W/m2
21:32 48.2 °F 37.4 °F 30.01 in Calm     66% 0.00 in 0.00 W/m2
21:37 48.1 °F 38.4 °F 30.01 in Calm     69% 0.00 in 0.00 W/m2
21:42 48.0 °F 37.6 °F 30.02 in Calm     67% 0.00 in 0.00 W/m2
21:47 47.8 °F 37.0 °F 30.02 in Calm     66% 0.00 in 0.00 W/m2
21:52 47.8 °F 37.8 °F 30.02 in Calm     68% 0.00 in 0.00 W/m2
21:57 47.8 °F 38.1 °F 30.01 in Calm     69% 0.00 in 0.00 W/m2
22:02 47.7 °F 37.7 °F 30.01 in Calm     68% 0.00 in 0.00 W/m2
22:07 47.6 °F 37.2 °F 30.01 in Calm     67% 0.00 in 0.00 W/m2
22:12 47.6 °F 37.6 °F 30.02 in Calm     68% 0.00 in 0.00 W/m2
22:17 47.5 °F 37.1 °F 30.01 in Calm     67% 0.00 in 0.00 W/m2
22:22 47.4 °F 37.0 °F 30.01 in Calm     67% 0.00 in 0.00 W/m2
22:27 47.4 °F 37.8 °F 30.02 in Calm     69% 0.00 in 0.00 W/m2
22:32 47.3 °F 37.7 °F 30.02 in Calm     69% 0.00 in 0.00 W/m2
22:37 47.2 °F 37.2 °F 30.01 in Calm     68% 0.00 in 0.00 W/m2
22:42 47.1 °F 37.5 °F 30.01 in Calm     69% 0.00 in 0.00 W/m2
22:47 47.1 °F 37.5 °F 30.01 in Calm     69% 0.00 in 0.00 W/m2
22:52 47.0 °F 37.0 °F 30.01 in Calm     68% 0.00 in 0.00 W/m2
22:57 46.9 °F 37.6 °F 30.02 in Calm     70% 0.00 in 0.00 W/m2
23:03 46.8 °F 36.4 °F 30.02 in Calm     67% 0.00 in 0.00 W/m2
23:08 46.8 °F 37.2 °F 30.02 in Calm     69% 0.00 in 0.00 W/m2
23:13 46.7 °F 36.7 °F 30.01 in Calm     68% 0.00 in 0.00 W/m2
23:18 46.8 °F 37.5 °F 30.01 in Calm     70% 0.00 in 0.00 W/m2
23:23 46.7 °F 37.1 °F 30.01 in Calm     69% 0.00 in 0.00 W/m2
23:28 46.7 °F 37.1 °F 30.01 in Calm     69% 0.00 in 0.00 W/m2
23:33 46.7 °F 37.1 °F 30.01 in Calm     69% 0.00 in 0.00 W/m2
23:38 46.6 °F 35.9 °F 30.01 in Calm     66% 0.00 in 0.00 W/m2
23:43 46.5 °F 36.2 °F 30.01 in Calm     67% 0.00 in 0.00 W/m2
23:48 46.4 °F 36.0 °F 30.01 in Calm     67% 0.00 in 0.00 W/m2
23:53 46.3 °F 36.7 °F 30.01 in Calm     69% 0.00 in 0.00 W/m2
23:58 46.0 °F 36.4 °F 30.01 in Calm     69% 0.00 in 0.00 W/m2
Foresthill Weather
 WU-history PHP script courtesy of   Juneau County Weather.
powered by Cumulus v1.9.3 (1059)
Ambient Weather VWS v14.00
Top Contact Website Map Copyright © 2007 - 2018 Foresthillweather.com Never base important decisions on this or any weather information obtained from the Internet